メインページ
METAR-TAF:

METAR-TAF

空港 :

バンコク, タイ

ドンムアン空港

緯度: 13-54-45N, 経度: 100-36-24E, 海抜: 4m

現時点の気象観測

当レポートは44分前の00:30(UTC)に作成
東/南東の風 3kt
気温 29°C
湿度 94%
気圧 1007 hPa
視程: 7000m
高度2000ftの雲はほとんどない

METAR: VTBD 230030Z 12003KT 7000 FEW020 29/28 Q1007 NOSIG

時間: 08:14 (01:14 UTC)

予報

当レポートは2時間14分前の23:00(UTC)に作成
予報は23日の 00時(UTC)から 24日の 06時(UTC)まで有効
東/南東の風 5kt
視程10km以上
高度2000ftの雲はほとんどない
高度3000ftの雲は散在している
23日の 02時(UTC)から 23日の 04時(UTC)まで徐々に
南/南西の風 8kt
高度2000ftの雲は散在している
23日の 04時(UTC)から 23日の 09時(UTC)まで一時的に
南西の風 12kt
視程: 6000m
高度1800ftの雲はほとんどない, 積乱雲.
高度3000ftの雲は散在している
激しい雷雨, 小雨
23日の 18時(UTC)から 23日の 20時(UTC)まで徐々に
南東の風 5kt
高度2000ftの雲はほとんどない
24日の 02時(UTC)から 24日の 04時(UTC)まで徐々に
南/南西の風 8kt

TAF: VTBD 222300Z 2300/2406 12005KT 9999 FEW020 SCT030 BECMG 2302/2304 21008KT SCT020 TEMPO 2304/2309 23012KT 6000 -TSRA FEW018CB SCT030 BECMG 2318/2320 13005KT FEW020 BECMG 2402/2404 21008KT

4,000以上の空港の気象観測と天気予報(METAR報とTAF報)

利用可能な観測所は地図上に黄色い丸と赤い丸で示す。

丸の上にカーソルを重ねると観測所名を参照できる。

次にクリックすると気象観測と天気予報を参照できる。

マップの切り替え:黒色「×」印の緑ボタンをクリックして拡大、「-」印の緑ボタンをクリックして縮小、緑色の三角印をクリックして隣りの地図に切り替え


METAR-TAF: